createdAt,value
2017-02-07T00:00:05.431Z,0
2017-02-07T00:01:05.870Z,0
2017-02-07T00:02:05.535Z,0
2017-02-07T00:03:05.987Z,0
2017-02-07T00:04:06.028Z,0
2017-02-07T00:05:06.290Z,0
2017-02-07T00:06:05.758Z,0
2017-02-07T00:07:05.816Z,0
2017-02-07T00:08:06.256Z,0
2017-02-07T00:09:06.296Z,0
2017-02-07T00:10:06.363Z,0
2017-02-07T00:11:06.410Z,0
2017-02-07T00:12:06.081Z,0
2017-02-07T00:13:06.515Z,0
2017-02-07T00:14:06.567Z,0
2017-02-07T00:15:06.630Z,0
2017-02-07T00:16:06.684Z,0
2017-02-07T00:17:06.729Z,0
2017-02-07T00:18:06.797Z,0
2017-02-07T00:19:06.836Z,0
2017-02-07T00:20:06.908Z,0
2017-02-07T00:21:06.942Z,0
2017-02-07T00:22:07.008Z,0
2017-02-07T00:23:07.056Z,0
2017-02-07T00:24:06.726Z,0
2017-02-07T00:25:07.162Z,0
2017-02-07T00:26:07.229Z,0
2017-02-07T00:27:07.276Z,0
2017-02-07T00:28:06.933Z,0
2017-02-07T00:29:07.418Z,0
2017-02-07T00:30:07.420Z,0
2017-02-07T00:31:07.497Z,0
2017-02-07T00:32:07.538Z,0
2017-02-07T00:33:07.595Z,0
2017-02-07T00:34:07.630Z,0
2017-02-07T00:35:07.706Z,0
2017-02-07T00:36:07.762Z,0
2017-02-07T00:37:07.427Z,0
2017-02-07T00:38:07.864Z,0
2017-02-07T00:39:07.902Z,0
2017-02-07T00:40:07.951Z,0
2017-02-07T00:41:08.012Z,0
2017-02-07T00:42:07.696Z,0
2017-02-07T00:43:08.128Z,0
2017-02-07T00:44:08.176Z,0
2017-02-07T00:45:08.236Z,0
2017-02-07T00:46:08.304Z,0
2017-02-07T00:47:08.335Z,0
2017-02-07T00:48:08.402Z,0
2017-02-07T00:49:08.469Z,0
2017-02-07T00:50:08.500Z,0
2017-02-07T00:51:08.553Z,0
2017-02-07T00:52:08.593Z,0
2017-02-07T00:53:08.668Z,0
2017-02-07T00:54:08.721Z,0
2017-02-07T00:55:08.785Z,0
2017-02-07T00:56:08.829Z,0
2017-02-07T00:57:08.890Z,0
2017-02-07T00:58:08.938Z,0
2017-02-07T00:59:09.000Z,0
2017-02-07T01:00:09.054Z,0
2017-02-07T01:01:09.100Z,0
2017-02-07T01:02:08.390Z,0
2017-02-07T01:03:09.203Z,0
2017-02-07T01:04:09.259Z,0
2017-02-07T01:05:09.325Z,0
2017-02-07T01:06:09.365Z,0
2017-02-07T01:07:09.403Z,0
2017-02-07T01:08:09.461Z,0
2017-02-07T01:09:09.510Z,0
2017-02-07T01:10:09.580Z,0
2017-02-07T01:11:09.652Z,0
2017-02-07T01:12:09.677Z,0
2017-02-07T01:13:09.731Z,0
2017-02-07T01:14:09.775Z,0
2017-02-07T01:15:09.844Z,0
2017-02-07T01:16:09.505Z,0
2017-02-07T01:17:09.550Z,0
2017-02-07T01:18:10.025Z,0
2017-02-07T01:19:09.683Z,0
2017-02-07T01:20:09.708Z,0
2017-02-07T01:21:09.785Z,0
2017-02-07T01:22:10.226Z,0
2017-02-07T01:23:09.882Z,0
2017-02-07T01:24:09.953Z,0
2017-02-07T01:25:10.386Z,0
2017-02-07T01:26:10.484Z,0
2017-02-07T01:27:10.482Z,0
2017-02-07T01:28:09.770Z,0
2017-02-07T01:29:10.578Z,0
2017-02-07T01:30:10.275Z,0
2017-02-07T01:31:10.719Z,0
2017-02-07T01:32:10.751Z,0
2017-02-07T01:33:10.830Z,0
2017-02-07T01:34:10.891Z,0
2017-02-07T01:35:10.940Z,0
2017-02-07T01:36:10.589Z,0
2017-02-07T01:37:11.011Z,0
2017-02-07T01:38:11.079Z,0
2017-02-07T01:39:10.750Z,0
2017-02-07T01:40:11.182Z,0
2017-02-07T01:41:10.882Z,0
2017-02-07T01:42:10.906Z,0
2017-02-07T01:43:10.962Z,0
2017-02-07T01:44:10.619Z,0
2017-02-07T01:45:11.455Z,0
2017-02-07T01:46:11.115Z,0
2017-02-07T01:47:11.555Z,0
2017-02-07T01:48:11.619Z,0
2017-02-07T01:49:11.663Z,0
2017-02-07T01:50:11.332Z,0
2017-02-07T01:51:11.805Z,0
2017-02-07T01:52:11.836Z,0
2017-02-07T01:53:11.886Z,0
2017-02-07T01:54:11.933Z,0
2017-02-07T01:55:11.998Z,0
2017-02-07T01:56:12.048Z,0
2017-02-07T01:57:12.110Z,0
2017-02-07T01:58:12.170Z,0
2017-02-07T01:59:12.191Z,0
2017-02-07T02:00:11.868Z,0
2017-02-07T02:01:12.302Z,0
2017-02-07T02:02:11.963Z,0
2017-02-07T02:03:12.420Z,0
2017-02-07T02:04:12.466Z,0
2017-02-07T02:05:12.138Z,0
2017-02-07T02:06:12.192Z,0
2017-02-07T02:07:12.253Z,0
2017-02-07T02:08:12.688Z,0
2017-02-07T02:09:12.354Z,0
2017-02-07T02:10:11.634Z,0
2017-02-07T02:11:12.467Z,0
2017-02-07T02:12:12.126Z,0
2017-02-07T02:13:12.938Z,0
2017-02-07T02:14:13.003Z,0
2017-02-07T02:15:12.670Z,0
2017-02-07T02:16:13.120Z,0
2017-02-07T02:17:13.177Z,0
2017-02-07T02:18:12.834Z,0
2017-02-07T02:19:13.275Z,0
2017-02-07T02:20:12.930Z,0
2017-02-07T02:21:13.382Z,0
2017-02-07T02:22:12.669Z,0
2017-02-07T02:23:13.504Z,0
2017-02-07T02:24:13.545Z,0
2017-02-07T02:25:13.599Z,0
2017-02-07T02:26:12.494Z,0
2017-02-07T02:27:13.689Z,0
2017-02-07T02:28:12.987Z,0
2017-02-07T02:29:13.819Z,0
2017-02-07T02:30:13.496Z,0
2017-02-07T02:31:13.925Z,0
2017-02-07T02:32:13.978Z,0
2017-02-07T02:33:14.045Z,0
2017-02-07T02:34:14.079Z,0
2017-02-07T02:35:14.142Z,0
2017-02-07T02:36:14.187Z,0
2017-02-07T02:37:14.234Z,0
2017-02-07T02:38:13.905Z,0
2017-02-07T02:39:14.354Z,0
2017-02-07T02:40:14.409Z,0
2017-02-07T02:41:14.459Z,0
2017-02-07T02:42:14.137Z,0
2017-02-07T02:43:14.576Z,0
2017-02-07T02:44:14.621Z,0
2017-02-07T02:45:14.660Z,0
2017-02-07T02:46:13.962Z,0
2017-02-07T02:47:14.785Z,0
2017-02-07T02:48:14.829Z,0
2017-02-07T02:49:14.872Z,0
2017-02-07T02:50:14.939Z,0
2017-02-07T02:51:15.009Z,0
2017-02-07T02:52:15.063Z,0
2017-02-07T02:53:15.100Z,0
2017-02-07T02:54:13.999Z,0
2017-02-07T02:55:14.825Z,0
2017-02-07T02:56:15.246Z,0
2017-02-07T02:57:14.538Z,0
2017-02-07T02:58:15.366Z,0
2017-02-07T02:59:15.035Z,0
2017-02-07T03:00:15.077Z,0
2017-02-07T03:01:15.544Z,0
2017-02-07T03:02:15.200Z,0
2017-02-07T03:03:15.653Z,0
2017-02-07T03:04:15.697Z,0
2017-02-07T03:05:15.749Z,0
2017-02-07T03:06:15.413Z,0
2017-02-07T03:07:15.853Z,0
2017-02-07T03:08:15.526Z,0
2017-02-07T03:09:15.961Z,0
2017-02-07T03:10:15.228Z,0
2017-02-07T03:11:16.052Z,0
2017-02-07T03:12:16.112Z,0
2017-02-07T03:13:16.179Z,0
2017-02-07T03:14:16.233Z,0
2017-02-07T03:15:16.274Z,0
2017-02-07T03:16:16.330Z,0
2017-02-07T03:17:16.402Z,0
2017-02-07T03:18:16.447Z,0
2017-02-07T03:19:16.478Z,0
2017-02-07T03:20:16.562Z,0
2017-02-07T03:21:16.224Z,0
2017-02-07T03:22:16.668Z,0
2017-02-07T03:23:16.703Z,0
2017-02-07T03:24:16.370Z,0
2017-02-07T03:25:16.810Z,0
2017-02-07T03:26:16.860Z,0
2017-02-07T03:27:17.127Z,0
2017-02-07T03:28:16.582Z,0
2017-02-07T03:29:17.035Z,0
2017-02-07T03:30:17.092Z,0
2017-02-07T03:31:17.174Z,0
2017-02-07T03:32:17.183Z,0
2017-02-07T03:33:17.257Z,0
2017-02-07T03:34:16.903Z,0
2017-02-07T03:35:17.337Z,0
2017-02-07T03:36:17.398Z,0
2017-02-07T03:37:17.448Z,0
2017-02-07T03:38:17.503Z,0
2017-02-07T03:39:17.570Z,0
2017-02-07T03:40:17.630Z,0
2017-02-07T03:41:17.677Z,0
2017-02-07T03:42:17.729Z,0
2017-02-07T03:43:17.770Z,0
2017-02-07T03:44:17.822Z,0
2017-02-07T03:45:17.867Z,0
2017-02-07T03:46:17.943Z,0
2017-02-07T03:47:17.985Z,0
2017-02-07T03:48:18.039Z,0
2017-02-07T03:49:18.086Z,0
2017-02-07T03:50:18.185Z,0
2017-02-07T03:51:18.213Z,0
2017-02-07T03:52:18.264Z,0
2017-02-07T03:53:18.306Z,0
2017-02-07T03:54:18.368Z,0
2017-02-07T03:55:18.436Z,0
2017-02-07T03:56:18.467Z,0
2017-02-07T03:57:18.521Z,0
2017-02-07T03:58:18.204Z,0
2017-02-07T03:59:18.641Z,0
2017-02-07T04:00:18.687Z,0
2017-02-07T04:01:18.762Z,0
2017-02-07T04:02:18.810Z,0
2017-02-07T04:03:18.856Z,0
2017-02-07T04:04:18.888Z,0
2017-02-07T04:05:18.950Z,0
2017-02-07T04:06:19.023Z,0
2017-02-07T04:07:19.059Z,0
2017-02-07T04:08:19.120Z,0
2017-02-07T04:09:18.771Z,0
2017-02-07T04:10:19.207Z,0
2017-02-07T04:11:19.294Z,0
2017-02-07T04:12:19.317Z,0
2017-02-07T04:13:19.386Z,0
2017-02-07T04:14:19.038Z,0
2017-02-07T04:15:19.101Z,0
2017-02-07T04:16:19.550Z,0
2017-02-07T04:17:19.614Z,0
2017-02-07T04:18:19.650Z,0
2017-02-07T04:19:19.711Z,0
2017-02-07T04:20:19.757Z,0
2017-02-07T04:21:19.813Z,0
2017-02-07T04:22:19.876Z,0
2017-02-07T04:23:19.927Z,0
2017-02-07T04:24:19.969Z,0
2017-02-07T04:25:20.041Z,0
2017-02-07T04:26:19.697Z,0
2017-02-07T04:27:19.753Z,0
2017-02-07T04:28:20.196Z,0
2017-02-07T04:29:20.247Z,0
2017-02-07T04:30:20.319Z,0
2017-02-07T04:31:20.373Z,0
2017-02-07T04:32:20.405Z,0
2017-02-07T04:33:20.439Z,0
2017-02-07T04:34:20.125Z,0
2017-02-07T04:35:20.163Z,0
2017-02-07T04:36:20.599Z,0
2017-02-07T04:37:20.663Z,0
2017-02-07T04:38:20.338Z,0
2017-02-07T04:39:20.005Z,0
2017-02-07T04:40:20.833Z,0
2017-02-07T04:41:20.880Z,0
2017-02-07T04:42:20.921Z,0
2017-02-07T04:43:20.979Z,0
2017-02-07T04:44:21.041Z,0
2017-02-07T04:45:21.093Z,0
2017-02-07T04:46:21.155Z,0
2017-02-07T04:47:21.220Z,0
2017-02-07T04:48:21.274Z,0
2017-02-07T04:49:21.331Z,0
2017-02-07T04:50:21.373Z,0
2017-02-07T04:51:21.432Z,0
2017-02-07T04:52:21.491Z,0
2017-02-07T04:53:21.532Z,0
2017-02-07T04:54:21.570Z,0
2017-02-07T04:55:21.622Z,0
2017-02-07T04:56:21.685Z,0
2017-02-07T04:57:21.746Z,0
2017-02-07T04:58:21.411Z,0
2017-02-07T04:59:21.833Z,0
2017-02-07T05:00:21.917Z,0
2017-02-07T05:01:21.965Z,0
2017-02-07T05:02:22.009Z,0
2017-02-07T05:03:21.689Z,0
2017-02-07T05:04:22.115Z,0
2017-02-07T05:05:22.176Z,0
2017-02-07T05:06:22.217Z,0
2017-02-07T05:07:22.270Z,0
2017-02-07T05:08:22.344Z,0
2017-02-07T05:09:22.377Z,0
2017-02-07T05:10:22.036Z,0
2017-02-07T05:11:22.473Z,0
2017-02-07T05:12:22.152Z,0
2017-02-07T05:13:22.591Z,0
2017-02-07T05:14:22.259Z,0
2017-02-07T05:15:22.693Z,0
2017-02-07T05:16:22.770Z,0
2017-02-07T05:17:22.808Z,0
2017-02-07T05:18:22.469Z,0
2017-02-07T05:19:22.532Z,0
2017-02-07T05:20:22.969Z,0
2017-02-07T05:21:23.032Z,0
2017-02-07T05:22:23.089Z,0
2017-02-07T05:23:23.116Z,0
2017-02-07T05:24:23.196Z,0
2017-02-07T05:25:23.255Z,0
2017-02-07T05:26:22.532Z,0
2017-02-07T05:27:23.344Z,0
2017-02-07T05:28:23.025Z,0
2017-02-07T05:29:23.453Z,0
2017-02-07T05:30:23.122Z,0
2017-02-07T05:31:23.180Z,0
2017-02-07T05:32:23.620Z,0
2017-02-07T05:33:23.285Z,0
2017-02-07T05:34:23.322Z,0
2017-02-07T05:35:23.770Z,0
2017-02-07T05:36:23.825Z,0
2017-02-07T05:37:23.866Z,0
2017-02-07T05:38:23.941Z,0
2017-02-07T05:39:23.993Z,0
2017-02-07T05:40:24.046Z,0
2017-02-07T05:41:24.083Z,0
2017-02-07T05:42:24.144Z,0
2017-02-07T05:43:23.812Z,0
2017-02-07T05:44:23.854Z,0
2017-02-07T05:45:23.924Z,0
2017-02-07T05:46:24.373Z,0
2017-02-07T05:47:24.419Z,0
2017-02-07T05:48:24.474Z,0
2017-02-07T05:49:24.521Z,0
2017-02-07T05:50:24.570Z,0
2017-02-07T05:51:24.621Z,0
2017-02-07T05:52:24.297Z,0
2017-02-07T05:53:24.738Z,0
2017-02-07T05:54:24.806Z,0
2017-02-07T05:55:24.838Z,0
2017-02-07T05:56:24.506Z,0
2017-02-07T05:57:24.949Z,0
2017-02-07T05:58:24.988Z,0
2017-02-07T05:59:25.069Z,0
2017-02-07T06:00:25.118Z,0
2017-02-07T06:01:25.163Z,0
2017-02-07T06:02:25.212Z,0
2017-02-07T06:03:25.280Z,0
2017-02-07T06:04:25.338Z,0
2017-02-07T06:05:25.385Z,0
2017-02-07T06:06:25.443Z,0
2017-02-07T06:07:25.484Z,0
2017-02-07T06:08:25.553Z,0
2017-02-07T06:09:25.600Z,0
2017-02-07T06:10:25.649Z,0
2017-02-07T06:11:25.711Z,0
2017-02-07T06:12:25.755Z,0
2017-02-07T06:13:25.794Z,0
2017-02-07T06:14:25.864Z,0
2017-02-07T06:15:25.914Z,0
2017-02-07T06:16:25.588Z,0
2017-02-07T06:17:25.629Z,0
2017-02-07T06:18:26.059Z,0
2017-02-07T06:19:26.119Z,0
2017-02-07T06:20:26.165Z,0
2017-02-07T06:21:25.461Z,0
2017-02-07T06:22:26.284Z,0
2017-02-07T06:23:26.341Z,0
2017-02-07T06:24:26.392Z,0
2017-02-07T06:25:26.463Z,0
2017-02-07T06:26:26.509Z,0
2017-02-07T06:27:26.561Z,0
2017-02-07T06:28:26.596Z,0
2017-02-07T06:29:26.662Z,0
2017-02-07T06:30:26.711Z,0
2017-02-07T06:31:26.760Z,0
2017-02-07T06:32:26.821Z,0
2017-02-07T06:33:26.883Z,0
2017-02-07T06:34:26.929Z,0
2017-02-07T06:35:26.585Z,0
2017-02-07T06:36:26.648Z,0
2017-02-07T06:37:27.089Z,0
2017-02-07T06:38:27.148Z,0
2017-02-07T06:39:27.185Z,0
2017-02-07T06:40:27.256Z,0
2017-02-07T06:41:27.290Z,0
2017-02-07T06:42:27.354Z,0
2017-02-07T06:43:27.413Z,0
2017-02-07T06:44:27.461Z,0
2017-02-07T06:45:27.511Z,0
2017-02-07T06:46:27.576Z,0
2017-02-07T06:47:27.624Z,0
2017-02-07T06:48:27.676Z,0
2017-02-07T06:49:27.721Z,0
2017-02-07T06:50:27.775Z,0
2017-02-07T06:51:27.857Z,5
2017-02-07T06:52:27.910Z,5
2017-02-07T06:53:27.951Z,5
2017-02-07T06:54:28.004Z,5
2017-02-07T06:55:28.254Z,5
2017-02-07T06:56:28.124Z,5
2017-02-07T06:57:27.780Z,5
2017-02-07T06:58:28.221Z,5
2017-02-07T06:59:28.277Z,5
2017-02-07T07:00:27.934Z,5
2017-02-07T07:01:27.592Z,5
2017-02-07T07:02:28.431Z,5
2017-02-07T07:03:28.494Z,5
2017-02-07T07:04:28.536Z,5
2017-02-07T07:05:28.601Z,5
2017-02-07T07:06:28.635Z,5
2017-02-07T07:07:28.315Z,5
2017-02-07T07:08:28.736Z,10
2017-02-07T07:09:28.802Z,10
2017-02-07T07:10:28.844Z,10
2017-02-07T07:11:28.910Z,10
2017-02-07T07:12:28.585Z,10
2017-02-07T07:13:29.015Z,10
2017-02-07T07:14:29.068Z,10
2017-02-07T07:15:29.132Z,10
2017-02-07T07:16:29.177Z,10
2017-02-07T07:17:29.250Z,10
2017-02-07T07:18:29.302Z,10
2017-02-07T07:19:28.953Z,10
2017-02-07T07:20:29.395Z,10
2017-02-07T07:21:29.445Z,10
2017-02-07T07:22:28.734Z,10
2017-02-07T07:23:29.564Z,10
2017-02-07T07:24:29.602Z,10
2017-02-07T07:25:29.673Z,10
2017-02-07T07:26:29.921Z,10
2017-02-07T07:27:29.610Z,15
2017-02-07T07:28:30.024Z,15
2017-02-07T07:29:29.875Z,15
2017-02-07T07:30:29.929Z,15
2017-02-07T07:31:29.985Z,15
2017-02-07T07:32:30.043Z,15
2017-02-07T07:33:43.320Z,15
2017-02-07T07:34:29.753Z,15
2017-02-07T07:35:30.215Z,15
2017-02-07T07:36:30.258Z,15
2017-02-07T07:37:30.311Z,15
2017-02-07T07:38:30.373Z,15
2017-02-07T07:39:30.414Z,15
2017-02-07T07:40:30.479Z,15
2017-02-07T07:41:30.512Z,15
2017-02-07T07:42:30.575Z,15
2017-02-07T07:43:30.624Z,15
2017-02-07T07:44:30.684Z,15
2017-02-07T07:45:30.735Z,15
2017-02-07T07:46:30.789Z,15
2017-02-07T07:47:30.834Z,15
2017-02-07T07:48:30.903Z,15
2017-02-07T07:49:30.969Z,15
2017-02-07T07:50:31.020Z,15
2017-02-07T07:51:31.045Z,20
2017-02-07T07:52:31.113Z,20
2017-02-07T07:53:31.178Z,20
2017-02-07T07:54:31.215Z,20
2017-02-07T07:55:31.283Z,20
2017-02-07T07:56:31.539Z,20
2017-02-07T07:57:31.015Z,20
2017-02-07T07:58:31.446Z,20
2017-02-07T07:59:31.502Z,20
2017-02-07T08:00:31.554Z,20
2017-02-07T08:01:31.603Z,20
2017-02-07T08:02:31.270Z,20
2017-02-07T08:03:31.327Z,20
2017-02-07T08:04:31.784Z,20
2017-02-07T08:05:31.828Z,20
2017-02-07T08:06:31.490Z,20
2017-02-07T08:07:31.165Z,20
2017-02-07T08:08:32.189Z,20
2017-02-07T08:09:32.040Z,20
2017-02-07T08:10:32.079Z,20
2017-02-07T08:11:32.141Z,25
2017-02-07T08:12:31.809Z,25
2017-02-07T08:13:32.271Z,25
2017-02-07T08:14:32.315Z,25
2017-02-07T08:15:31.979Z,25
2017-02-07T08:16:32.422Z,25
2017-02-07T08:17:32.465Z,25
2017-02-07T08:18:32.544Z,25
2017-02-07T08:19:32.576Z,25
2017-02-07T08:20:32.639Z,25
2017-02-07T08:21:32.697Z,25
2017-02-07T08:22:32.741Z,25
2017-02-07T08:23:32.804Z,25
2017-02-07T08:24:32.848Z,25
2017-02-07T08:25:32.504Z,25
2017-02-07T08:26:32.957Z,25
2017-02-07T08:27:32.646Z,25
2017-02-07T08:28:33.076Z,25
2017-02-07T08:29:33.134Z,25
2017-02-07T08:30:33.184Z,25
2017-02-07T08:31:33.443Z,25
2017-02-07T08:32:33.296Z,25
2017-02-07T08:33:32.952Z,25
2017-02-07T08:34:33.393Z,25
2017-02-07T08:35:33.064Z,25
2017-02-07T08:36:33.121Z,30
2017-02-07T08:37:33.776Z,30
2017-02-07T08:38:33.216Z,30
2017-02-07T08:39:33.864Z,30
2017-02-07T08:40:33.734Z,30
2017-02-07T08:41:33.795Z,30
2017-02-07T08:42:33.842Z,30
2017-02-07T08:43:33.887Z,30
2017-02-07T08:44:33.959Z,30
2017-02-07T08:45:33.995Z,30
2017-02-07T08:46:34.062Z,30
2017-02-07T08:47:34.102Z,30
2017-02-07T08:48:34.149Z,30
2017-02-07T08:49:34.213Z,30
2017-02-07T08:50:34.286Z,30
2017-02-07T08:51:34.320Z,30
2017-02-07T08:52:34.379Z,30
2017-02-07T08:53:34.428Z,30
2017-02-07T08:54:34.487Z,30
2017-02-07T08:55:34.551Z,35
2017-02-07T08:56:34.205Z,35
2017-02-07T08:57:34.642Z,35
2017-02-07T08:58:34.324Z,30
2017-02-07T08:59:34.759Z,35
2017-02-07T09:00:34.422Z,35
2017-02-07T09:01:34.876Z,35
2017-02-07T09:02:34.532Z,35
2017-02-07T09:03:34.986Z,35
2017-02-07T09:04:35.035Z,35
2017-02-07T09:05:35.082Z,35
2017-02-07T09:06:34.760Z,35
2017-02-07T09:07:35.405Z,35
2017-02-07T09:08:35.448Z,35
2017-02-07T09:09:35.320Z,35
2017-02-07T09:10:35.364Z,35
2017-02-07T09:11:35.417Z,35
2017-02-07T09:12:35.070Z,35
2017-02-07T09:13:49.156Z,35
2017-02-07T09:14:35.568Z,35
2017-02-07T09:15:35.630Z,35
2017-02-07T09:16:35.683Z,35
2017-02-07T09:17:35.350Z,35
2017-02-07T09:18:35.796Z,35
2017-02-07T09:19:35.837Z,35
2017-02-07T09:20:36.096Z,35
2017-02-07T09:21:35.564Z,35
2017-02-07T09:22:36.020Z,35
2017-02-07T09:23:36.040Z,35
2017-02-07T09:24:35.741Z,35
2017-02-07T09:25:36.202Z,35
2017-02-07T09:26:36.233Z,35
2017-02-07T09:27:36.280Z,35
2017-02-07T09:28:36.329Z,35
2017-02-07T09:29:35.619Z,35
2017-02-07T09:30:36.048Z,35
2017-02-07T09:31:36.102Z,35
2017-02-07T09:32:36.540Z,35
2017-02-07T09:33:36.605Z,35
2017-02-07T09:34:36.648Z,35
2017-02-07T09:35:36.693Z,40
2017-02-07T09:36:36.396Z,40
2017-02-07T09:37:36.441Z,40
2017-02-07T09:38:36.878Z,40
2017-02-07T09:39:36.924Z,40
2017-02-07T09:40:36.986Z,40
2017-02-07T09:41:37.040Z,40
2017-02-07T09:42:37.083Z,40
2017-02-07T09:43:37.134Z,35
2017-02-07T09:44:37.399Z,40
2017-02-07T09:45:37.262Z,40
2017-02-07T09:46:37.299Z,40
2017-02-07T09:47:37.356Z,40
2017-02-07T09:48:37.402Z,45
2017-02-07T09:49:37.288Z,45
2017-02-07T09:50:37.518Z,50
2017-02-07T09:51:43.913Z,55
2017-02-07T09:52:37.648Z,100
2017-02-07T09:53:37.682Z,175
2017-02-07T09:54:37.748Z,205
2017-02-07T09:55:37.792Z,215
2017-02-07T09:56:37.865Z,220
2017-02-07T09:57:37.899Z,220
2017-02-07T09:58:37.952Z,225
2017-02-07T09:59:38.028Z,205
2017-02-07T10:00:38.069Z,210
2017-02-07T10:01:38.125Z,245
2017-02-07T10:02:38.171Z,250
2017-02-07T10:03:38.230Z,255
2017-02-07T10:04:38.304Z,255
2017-02-07T10:05:38.338Z,250
2017-02-07T10:06:38.395Z,255
2017-02-07T10:07:38.456Z,265
2017-02-07T10:08:38.493Z,265
2017-02-07T10:09:38.570Z,265
2017-02-07T10:10:38.602Z,260
2017-02-07T10:11:38.672Z,265
2017-02-07T10:12:38.735Z,265
2017-02-07T10:13:38.400Z,270
2017-02-07T10:14:38.863Z,270
2017-02-07T10:15:38.887Z,265
2017-02-07T10:16:38.575Z,265
2017-02-07T10:17:38.623Z,265
2017-02-07T10:18:39.054Z,265
2017-02-07T10:19:39.121Z,260
2017-02-07T10:20:39.185Z,250
2017-02-07T10:21:39.229Z,255
2017-02-07T10:22:39.292Z,270
2017-02-07T10:23:39.547Z,285
2017-02-07T10:24:39.599Z,285
2017-02-07T10:25:39.464Z,280
2017-02-07T10:26:39.500Z,285
2017-02-07T10:27:39.579Z,295
2017-02-07T10:28:39.625Z,300
2017-02-07T10:29:39.271Z,305
2017-02-07T10:30:39.723Z,310
2017-02-07T10:31:39.792Z,320
2017-02-07T10:32:39.842Z,315
2017-02-07T10:33:39.905Z,300
2017-02-07T10:34:39.933Z,315
2017-02-07T10:35:40.013Z,330
2017-02-07T10:36:40.061Z,325
2017-02-07T10:37:40.122Z,325
2017-02-07T10:38:40.181Z,330
2017-02-07T10:39:40.234Z,330
2017-02-07T10:40:40.312Z,320
2017-02-07T10:41:39.949Z,310
2017-02-07T10:42:40.389Z,330
2017-02-07T10:43:40.450Z,340
2017-02-07T10:44:40.518Z,330
2017-02-07T10:45:40.557Z,345
2017-02-07T10:46:40.646Z,350
2017-02-07T10:47:40.683Z,355
2017-02-07T10:48:40.377Z,355
2017-02-07T10:49:40.411Z,355
2017-02-07T10:50:40.847Z,370
2017-02-07T10:51:40.903Z,370
2017-02-07T10:52:40.571Z,350
2017-02-07T10:53:41.026Z,345
2017-02-07T10:54:41.082Z,370
2017-02-07T10:55:41.125Z,360
2017-02-07T10:56:41.182Z,340
2017-02-07T10:57:41.233Z,340
2017-02-07T10:58:41.508Z,325
2017-02-07T10:59:41.362Z,305
2017-02-07T11:00:41.015Z,295
2017-02-07T11:01:41.480Z,295
2017-02-07T11:02:41.522Z,285
2017-02-07T11:03:41.588Z,255
2017-02-07T11:04:41.858Z,240
2017-02-07T11:05:41.706Z,200
2017-02-07T11:06:41.746Z,225
2017-02-07T11:07:41.807Z,215
2017-02-07T11:08:41.872Z,205
2017-02-07T11:09:41.923Z,195
2017-02-07T11:10:41.993Z,180
2017-02-07T11:11:41.649Z,175
2017-02-07T11:12:42.111Z,160
2017-02-07T11:13:42.154Z,155
2017-02-07T11:14:41.877Z,145
2017-02-07T11:15:42.262Z,130
2017-02-07T11:16:42.321Z,125
2017-02-07T11:17:42.381Z,125
2017-02-07T11:18:42.057Z,115
2017-02-07T11:19:42.482Z,110
2017-02-07T11:20:42.568Z,105
2017-02-07T11:21:42.603Z,95
2017-02-07T11:22:42.284Z,85
2017-02-07T11:23:42.343Z,85
2017-02-07T11:24:42.880Z,75
2017-02-07T11:25:42.840Z,75
2017-02-07T11:26:42.899Z,70
2017-02-07T11:27:42.945Z,70
2017-02-07T11:28:43.020Z,65
2017-02-07T11:29:43.046Z,65
2017-02-07T11:30:43.120Z,65
2017-02-07T11:31:43.175Z,65
2017-02-07T11:32:43.235Z,60
2017-02-07T11:33:43.296Z,60
2017-02-07T11:34:43.352Z,60
2017-02-07T11:35:43.398Z,60
2017-02-07T11:36:43.457Z,60
2017-02-07T11:37:43.511Z,60
2017-02-07T11:38:43.583Z,60
2017-02-07T11:39:43.629Z,60
2017-02-07T11:40:43.696Z,60
2017-02-07T11:41:43.744Z,60
2017-02-07T11:42:43.799Z,60
2017-02-07T11:43:43.514Z,60
2017-02-07T11:44:43.910Z,60
2017-02-07T11:45:43.972Z,60
2017-02-07T11:46:44.030Z,60
2017-02-07T11:47:44.107Z,55
2017-02-07T11:48:44.144Z,55
2017-02-07T11:49:44.196Z,60
2017-02-07T11:50:44.245Z,55
2017-02-07T11:51:44.315Z,55
2017-02-07T11:52:44.370Z,50
2017-02-07T11:53:44.418Z,50
2017-02-07T11:54:44.115Z,50
2017-02-07T11:55:44.163Z,50
2017-02-07T11:56:44.584Z,50
2017-02-07T11:57:44.666Z,50
2017-02-07T11:58:44.702Z,45
2017-02-07T11:59:44.778Z,50
2017-02-07T12:00:44.448Z,45
2017-02-07T12:01:44.501Z,45
2017-02-07T12:02:44.941Z,45
2017-02-07T12:03:45.003Z,45
2017-02-07T12:04:45.038Z,45
2017-02-07T12:05:45.120Z,45
2017-02-07T12:06:45.174Z,45
2017-02-07T12:07:45.231Z,45
2017-02-07T12:08:45.267Z,45
2017-02-07T12:09:45.328Z,45
2017-02-07T12:10:45.400Z,45
2017-02-07T12:11:45.456Z,45
2017-02-07T12:12:45.136Z,45
2017-02-07T12:13:45.558Z,45
2017-02-07T12:14:45.618Z,45
2017-02-07T12:15:45.688Z,45
2017-02-07T12:16:45.748Z,45
2017-02-07T12:17:45.010Z,45
2017-02-07T12:18:45.828Z,45
2017-02-07T12:19:45.904Z,45
2017-02-07T12:20:45.960Z,40
2017-02-07T12:21:46.016Z,45
2017-02-07T12:22:46.074Z,45
2017-02-07T12:23:46.111Z,45
2017-02-07T12:24:45.028Z,45
2017-02-07T12:25:46.241Z,45
2017-02-07T12:26:46.302Z,45
2017-02-07T12:27:45.200Z,45
2017-02-07T12:28:46.404Z,45
2017-02-07T12:29:46.446Z,45
2017-02-07T12:30:46.521Z,45
2017-02-07T12:31:46.578Z,45
2017-02-07T12:32:46.641Z,45
2017-02-07T12:33:46.671Z,45
2017-02-07T12:34:46.735Z,45
2017-02-07T12:35:46.791Z,45
2017-02-07T12:36:46.859Z,45
2017-02-07T12:37:46.509Z,45
2017-02-07T12:38:46.196Z,45
2017-02-07T12:39:46.254Z,45
2017-02-07T12:40:47.081Z,45
2017-02-07T12:41:47.135Z,45
2017-02-07T12:42:47.187Z,45
2017-02-07T12:43:47.239Z,45
2017-02-07T12:44:46.531Z,45
2017-02-07T12:45:47.374Z,45
2017-02-07T12:46:47.033Z,45
2017-02-07T12:47:47.471Z,45
2017-02-07T12:48:47.149Z,45
2017-02-07T12:49:47.583Z,45
2017-02-07T12:50:47.620Z,45
2017-02-07T12:51:47.697Z,45
2017-02-07T12:52:47.754Z,45
2017-02-07T12:53:47.807Z,45
2017-02-07T12:54:47.854Z,45
2017-02-07T12:55:47.913Z,45
2017-02-07T12:56:47.988Z,45
2017-02-07T12:57:48.069Z,45
2017-02-07T12:58:48.068Z,40
2017-02-07T12:59:48.153Z,45
2017-02-07T13:00:48.186Z,45
2017-02-07T13:01:47.482Z,45
2017-02-07T13:02:47.912Z,45
2017-02-07T13:03:48.363Z,45
2017-02-07T13:04:48.425Z,40
2017-02-07T13:05:48.478Z,40
2017-02-07T13:06:48.532Z,45
2017-02-07T13:07:48.566Z,45
2017-02-07T13:08:47.868Z,40
2017-02-07T13:09:48.679Z,40
2017-02-07T13:10:48.755Z,40
2017-02-07T13:11:48.414Z,40
2017-02-07T13:12:48.473Z,40
2017-02-07T13:13:48.530Z,40
2017-02-07T13:14:48.585Z,40
2017-02-07T13:15:48.648Z,40
2017-02-07T13:16:49.087Z,40
2017-02-07T13:17:49.142Z,40
2017-02-07T13:18:49.198Z,40
2017-02-07T13:19:48.472Z,40
2017-02-07T13:20:49.315Z,40
2017-02-07T13:21:48.978Z,35
2017-02-07T13:22:49.427Z,35
2017-02-07T13:23:49.471Z,40
2017-02-07T13:24:49.531Z,40
2017-02-07T13:25:49.195Z,35
2017-02-07T13:26:49.628Z,35
2017-02-07T13:27:49.693Z,35
2017-02-07T13:28:49.766Z,40
2017-02-07T13:29:49.826Z,40
2017-02-07T13:30:49.858Z,40
2017-02-07T13:31:49.535Z,35
2017-02-07T13:32:49.970Z,35
2017-02-07T13:33:50.046Z,35
2017-02-07T13:34:50.080Z,35
2017-02-07T13:35:50.140Z,35
2017-02-07T13:36:49.816Z,35
2017-02-07T13:37:49.872Z,35
2017-02-07T13:38:50.309Z,35
2017-02-07T13:39:50.367Z,35
2017-02-07T13:40:50.426Z,35
2017-02-07T13:41:50.479Z,35
2017-02-07T13:42:50.524Z,35
2017-02-07T13:43:50.573Z,35
2017-02-07T13:44:50.641Z,35
2017-02-07T13:45:50.709Z,35
2017-02-07T13:46:50.380Z,35
2017-02-07T13:47:50.791Z,35
2017-02-07T13:48:50.859Z,35
2017-02-07T13:49:50.536Z,30
2017-02-07T13:50:50.974Z,35
2017-02-07T13:51:50.658Z,35
2017-02-07T13:52:50.700Z,35
2017-02-07T13:53:50.763Z,25
2017-02-07T13:54:51.206Z,20
2017-02-07T13:55:50.870Z,25
2017-02-07T13:56:50.917Z,30
2017-02-07T13:57:51.365Z,35
2017-02-07T13:58:51.042Z,25
2017-02-07T13:59:51.480Z,30
2017-02-07T14:00:51.521Z,25
2017-02-07T14:01:51.585Z,20
2017-02-07T14:02:51.651Z,30
2017-02-07T14:03:51.704Z,30
2017-02-07T14:04:51.763Z,30
2017-02-07T14:05:51.414Z,30
2017-02-07T14:06:51.862Z,25
2017-02-07T14:07:51.931Z,25
2017-02-07T14:08:51.964Z,20
2017-02-07T14:09:52.041Z,20
2017-02-07T14:10:52.092Z,20
2017-02-07T14:11:52.130Z,15
2017-02-07T14:12:52.187Z,15
2017-02-07T14:13:51.865Z,15
2017-02-07T14:14:51.911Z,30
2017-02-07T14:15:52.363Z,30
2017-02-07T14:16:52.418Z,25
2017-02-07T14:17:52.472Z,25
2017-02-07T14:18:52.538Z,30
2017-02-07T14:19:52.592Z,30
2017-02-07T14:20:52.631Z,30
2017-02-07T14:21:52.704Z,30
2017-02-07T14:22:52.763Z,30
2017-02-07T14:23:52.430Z,30
2017-02-07T14:24:52.480Z,25
2017-02-07T14:25:52.535Z,25
2017-02-07T14:26:52.976Z,20
2017-02-07T14:27:53.038Z,20